sensor_id;sensor_type;location;lat;lon;timestamp;P1;durP1;ratioP1;P2;durP2;ratioP2
31306;SDS011;17935;51.120;13.132;2023-04-03T05:36:20;5.72;;;2.60;;
31306;SDS011;17935;51.120;13.132;2023-04-03T05:38:46;7.45;;;3.17;;
31306;SDS011;17935;51.120;13.132;2023-04-03T05:41:12;7.38;;;3.28;;
31306;SDS011;17935;51.120;13.132;2023-04-03T05:43:38;6.60;;;3.10;;
31306;SDS011;17935;51.120;13.132;2023-04-03T05:46:08;6.00;;;2.25;;
31306;SDS011;17935;51.120;13.132;2023-04-03T05:48:34;8.60;;;3.30;;
31306;SDS011;17935;51.120;13.132;2023-04-03T05:51:00;6.63;;;2.75;;
31306;SDS011;17935;51.120;13.132;2023-04-03T05:53:27;5.03;;;3.10;;
31306;SDS011;17935;51.120;13.132;2023-04-03T05:55:53;9.80;;;3.83;;
31306;SDS011;17935;51.120;13.132;2023-04-03T05:58:19;7.38;;;5.13;;
31306;SDS011;17935;51.120;13.132;2023-04-03T06:00:45;8.60;;;4.40;;
31306;SDS011;17935;51.120;13.132;2023-04-03T06:03:11;6.55;;;3.40;;
31306;SDS011;17935;51.120;13.132;2023-04-03T06:05:37;9.63;;;3.22;;
31306;SDS011;17935;51.120;13.132;2023-04-03T06:08:03;10.20;;;4.68;;
31306;SDS011;17935;51.120;13.132;2023-04-03T06:10:30;17.83;;;6.85;;
31306;SDS011;17935;51.120;13.132;2023-04-03T06:12:56;7.70;;;4.13;;
31306;SDS011;17935;51.120;13.132;2023-04-03T06:15:22;11.07;;;6.20;;
31306;SDS011;17935;51.120;13.132;2023-04-03T06:17:48;5.35;;;3.45;;
31306;SDS011;17935;51.120;13.132;2023-04-03T06:22:41;7.32;;;2.88;;
31306;SDS011;17935;51.120;13.132;2023-04-03T06:25:07;9.75;;;2.83;;
31306;SDS011;17935;51.120;13.132;2023-04-03T06:27:34;7.03;;;2.17;;
31306;SDS011;17935;51.120;13.132;2023-04-03T06:30:00;7.25;;;2.50;;
31306;SDS011;17935;51.120;13.132;2023-04-03T06:32:26;5.25;;;2.50;;
31306;SDS011;17935;51.120;13.132;2023-04-03T06:34:51;9.07;;;2.45;;
31306;SDS011;17935;51.120;13.132;2023-04-03T06:37:19;12.07;;;2.20;;
31306;SDS011;17935;51.120;13.132;2023-04-03T06:39:45;8.35;;;2.20;;
31306;SDS011;17935;51.120;13.132;2023-04-03T06:42:11;10.10;;;2.10;;
31306;SDS011;17935;51.120;13.132;2023-04-03T06:44:37;9.82;;;2.65;;
31306;SDS011;17935;51.120;13.132;2023-04-03T06:47:03;10.45;;;3.55;;
31306;SDS011;17935;51.120;13.132;2023-04-03T06:49:30;5.78;;;2.25;;
31306;SDS011;17935;51.120;13.132;2023-04-03T08:46:24;4.50;;;1.97;;
31306;SDS011;17935;51.120;13.132;2023-04-03T08:48:52;5.30;;;2.00;;
31306;SDS011;17935;51.120;13.132;2023-04-03T08:51:19;3.17;;;1.67;;
31306;SDS011;17935;51.120;13.132;2023-04-03T08:53:53;3.47;;;1.80;;
31306;SDS011;17935;51.120;13.132;2023-04-03T08:56:21;5.60;;;1.90;;
31306;SDS011;17935;51.120;13.132;2023-04-03T08:58:49;7.70;;;1.60;;
31306;SDS011;17935;51.120;13.132;2023-04-03T09:03:46;5.93;;;1.73;;
31306;SDS011;17935;51.120;13.132;2023-04-03T09:06:16;4.63;;;1.55;;
31306;SDS011;17935;51.120;13.132;2023-04-03T09:16:59;4.13;;;1.88;;
31306;SDS011;17935;51.120;13.132;2023-04-03T09:21:59;3.92;;;1.92;;
31306;SDS011;17935;51.120;13.132;2023-04-03T09:24:27;7.45;;;1.52;;
31306;SDS011;17935;51.120;13.132;2023-04-03T09:26:58;5.40;;;1.58;;
31306;SDS011;17935;51.120;13.132;2023-04-03T09:29:25;2.60;;;1.48;;
31306;SDS011;17935;51.120;13.132;2023-04-03T09:31:59;4.85;;;1.70;;
31306;SDS011;17935;51.120;13.132;2023-04-03T09:34:27;4.38;;;2.33;;
31306;SDS011;17935;51.120;13.132;2023-04-03T09:36:54;5.97;;;2.05;;
31306;SDS011;17935;51.120;13.132;2023-04-03T09:39:21;3.40;;;1.50;;
31306;SDS011;17935;51.120;13.132;2023-04-03T09:42:01;3.47;;;1.63;;
31306;SDS011;17935;51.120;13.132;2023-04-03T09:44:29;6.68;;;1.75;;
31306;SDS011;17935;51.120;13.132;2023-04-03T09:46:55;7.85;;;2.08;;
31306;SDS011;17935;51.120;13.132;2023-04-03T09:49:21;6.50;;;1.90;;
31306;SDS011;17935;51.120;13.132;2023-04-03T09:51:47;5.40;;;1.73;;
31306;SDS011;17935;51.120;13.132;2023-04-03T09:56:55;4.38;;;1.98;;
31306;SDS011;17935;51.120;13.132;2023-04-03T09:59:21;3.15;;;1.35;;
31306;SDS011;17935;51.120;13.132;2023-04-03T10:02:04;4.22;;;1.45;;
31306;SDS011;17935;51.120;13.132;2023-04-03T10:04:42;3.70;;;1.67;;
31306;SDS011;17935;51.120;13.132;2023-04-03T10:10:01;4.82;;;1.90;;
31306;SDS011;17935;51.120;13.132;2023-04-03T10:12:28;4.70;;;1.48;;
31306;SDS011;17935;51.120;13.132;2023-04-03T10:14:58;5.57;;;2.13;;
31306;SDS011;17935;51.120;13.132;2023-04-03T10:22:45;8.90;;;1.90;;
31306;SDS011;17935;51.120;13.132;2023-04-03T10:25:20;9.88;;;2.10;;
31306;SDS011;17935;51.120;13.132;2023-04-03T10:30:29;3.42;;;1.50;;
31306;SDS011;17935;51.120;13.132;2023-04-03T10:33:01;3.03;;;1.52;;
31306;SDS011;17935;51.120;13.132;2023-04-03T10:35:36;5.03;;;1.27;;
31306;SDS011;17935;51.120;13.132;2023-04-03T10:38:21;3.75;;;1.70;;
31306;SDS011;17935;51.120;13.132;2023-04-03T10:40:57;3.40;;;1.83;;
31306;SDS011;17935;51.120;13.132;2023-04-03T10:43:33;3.65;;;1.60;;
31306;SDS011;17935;51.120;13.132;2023-04-03T10:46:45;2.53;;;1.45;;
31306;SDS011;17935;51.120;13.132;2023-04-03T10:49:01;4.55;;;1.50;;
31306;SDS011;17935;51.120;13.132;2023-04-03T10:51:42;2.47;;;1.70;;
31306;SDS011;17935;51.120;13.132;2023-04-03T10:57:05;3.30;;;1.40;;
31306;SDS011;17935;51.120;13.132;2023-04-03T10:59:32;6.00;;;1.30;;
31306;SDS011;17935;51.120;13.132;2023-04-03T11:02:05;4.13;;;1.50;;
31306;SDS011;17935;51.120;13.132;2023-04-03T11:04:34;7.43;;;2.42;;
31306;SDS011;17935;51.120;13.132;2023-04-03T11:07:04;4.13;;;1.50;;
31306;SDS011;17935;51.120;13.132;2023-04-03T11:09:34;2.67;;;1.08;;
31306;SDS011;17935;51.120;13.132;2023-04-03T11:12:06;7.25;;;2.75;;
31306;SDS011;17935;51.120;13.132;2023-04-03T11:14:36;3.92;;;1.40;;
31306;SDS011;17935;51.120;13.132;2023-04-03T11:19:33;4.85;;;1.80;;
31306;SDS011;17935;51.120;13.132;2023-04-03T11:22:06;6.47;;;1.80;;
31306;SDS011;17935;51.120;13.132;2023-04-03T11:24:34;2.25;;;1.33;;
31306;SDS011;17935;51.120;13.132;2023-04-03T11:27:02;4.65;;;1.30;;
31306;SDS011;17935;51.120;13.132;2023-04-03T11:29:34;3.70;;;1.45;;
31306;SDS011;17935;51.120;13.132;2023-04-03T11:34:34;4.85;;;1.40;;
31306;SDS011;17935;51.120;13.132;2023-04-03T11:37:04;3.88;;;1.50;;
31306;SDS011;17935;51.120;13.132;2023-04-03T11:39:32;5.20;;;1.42;;
31306;SDS011;17935;51.120;13.132;2023-04-03T11:42:15;4.20;;;1.45;;
31306;SDS011;17935;51.120;13.132;2023-04-03T11:44:42;5.43;;;1.43;;
31306;SDS011;17935;51.120;13.132;2023-04-03T11:47:11;4.60;;;1.50;;
31306;SDS011;17935;51.120;13.132;2023-04-03T11:49:58;2.97;;;1.25;;
31306;SDS011;17935;51.120;13.132;2023-04-03T12:08:25;1.67;;;1.30;;
31306;SDS011;17935;51.120;13.132;2023-04-03T12:13:40;6.28;;;1.45;;
31306;SDS011;17935;51.120;13.132;2023-04-03T12:16:07;3.97;;;1.45;;
31306;SDS011;17935;51.120;13.132;2023-04-03T12:18:40;3.95;;;1.85;;
31306;SDS011;17935;51.120;13.132;2023-04-03T12:21:07;2.33;;;1.23;;
31306;SDS011;17935;51.120;13.132;2023-04-03T12:23:33;4.38;;;1.67;;
31306;SDS011;17935;51.120;13.132;2023-04-03T12:26:02;1.92;;;1.38;;
31306;SDS011;17935;51.120;13.132;2023-04-03T12:28:29;2.83;;;1.38;;
31306;SDS011;17935;51.120;13.132;2023-04-03T12:31:09;1.77;;;1.60;;
31306;SDS011;17935;51.120;13.132;2023-04-03T12:33:46;4.22;;;1.50;;
31306;SDS011;17935;51.120;13.132;2023-04-03T12:36:37;2.92;;;1.23;;
31306;SDS011;17935;51.120;13.132;2023-04-03T12:46:37;2.67;;;1.58;;
31306;SDS011;17935;51.120;13.132;2023-04-03T12:49:12;6.95;;;2.80;;
31306;SDS011;17935;51.120;13.132;2023-04-03T12:51:41;3.78;;;1.60;;
31306;SDS011;17935;51.120;13.132;2023-04-03T12:54:15;4.68;;;2.40;;
31306;SDS011;17935;51.120;13.132;2023-04-03T12:56:41;5.55;;;2.28;;
31306;SDS011;17935;51.120;13.132;2023-04-03T13:01:40;3.20;;;1.70;;
31306;SDS011;17935;51.120;13.132;2023-04-03T13:04:06;6.43;;;2.60;;
31306;SDS011;17935;51.120;13.132;2023-04-03T13:06:42;4.22;;;1.52;;
31306;SDS011;17935;51.120;13.132;2023-04-03T13:09:42;4.20;;;1.65;;
31306;SDS011;17935;51.120;13.132;2023-04-03T13:12:02;4.30;;;1.50;;
31306;SDS011;17935;51.120;13.132;2023-04-03T13:14:29;9.38;;;1.80;;
31306;SDS011;17935;51.120;13.132;2023-04-03T13:16:56;5.43;;;1.42;;
31306;SDS011;17935;51.120;13.132;2023-04-03T13:19:23;6.15;;;1.75;;
31306;SDS011;17935;51.120;13.132;2023-04-03T13:21:51;9.95;;;2.20;;
31306;SDS011;17935;51.120;13.132;2023-04-03T13:24:20;3.97;;;1.63;;
31306;SDS011;17935;51.120;13.132;2023-04-03T13:26:46;4.90;;;1.60;;
31306;SDS011;17935;51.120;13.132;2023-04-03T13:29:24;3.58;;;1.40;;
31306;SDS011;17935;51.120;13.132;2023-04-03T13:31:52;5.07;;;1.50;;
31306;SDS011;17935;51.120;13.132;2023-04-03T13:34:19;3.85;;;1.52;;
31306;SDS011;17935;51.120;13.132;2023-04-03T13:36:55;5.50;;;1.70;;
31306;SDS011;17935;51.120;13.132;2023-04-03T13:39:23;2.85;;;1.50;;
31306;SDS011;17935;51.120;13.132;2023-04-03T13:41:54;4.38;;;1.92;;
31306;SDS011;17935;51.120;13.132;2023-04-03T13:46:47;3.92;;;1.50;;
31306;SDS011;17935;51.120;13.132;2023-04-03T13:49:58;3.88;;;2.00;;
31306;SDS011;17935;51.120;13.132;2023-04-03T13:52:17;3.70;;;1.60;;
31306;SDS011;17935;51.120;13.132;2023-04-03T13:54:48;2.78;;;1.30;;
31306;SDS011;17935;51.120;13.132;2023-04-03T13:57:17;3.08;;;1.40;;
31306;SDS011;17935;51.120;13.132;2023-04-03T13:59:43;3.70;;;1.70;;
31306;SDS011;17935;51.120;13.132;2023-04-03T14:07:11;4.70;;;1.65;;
31306;SDS011;17935;51.120;13.132;2023-04-03T14:09:37;4.30;;;2.10;;
31306;SDS011;17935;51.120;13.132;2023-04-03T14:12:08;3.80;;;2.05;;
31306;SDS011;17935;51.120;13.132;2023-04-03T14:14:35;6.63;;;1.88;;
31306;SDS011;17935;51.120;13.132;2023-04-03T14:17:03;7.50;;;2.83;;
31306;SDS011;17935;51.120;13.132;2023-04-03T14:19:35;2.23;;;1.57;;
31306;SDS011;17935;51.120;13.132;2023-04-03T14:22:10;10.45;;;2.40;;
31306;SDS011;17935;51.120;13.132;2023-04-03T14:24:36;4.75;;;1.83;;
31306;SDS011;17935;51.120;13.132;2023-04-03T14:27:05;3.88;;;1.42;;
31306;SDS011;17935;51.120;13.132;2023-04-03T14:29:36;9.07;;;1.85;;
31306;SDS011;17935;51.120;13.132;2023-04-03T14:32:02;4.97;;;1.70;;
31306;SDS011;17935;51.120;13.132;2023-04-03T14:34:28;3.85;;;1.67;;
31306;SDS011;17935;51.120;13.132;2023-04-03T14:36:55;5.25;;;1.50;;
31306;SDS011;17935;51.120;13.132;2023-04-03T14:39:21;5.68;;;1.50;;
31306;SDS011;17935;51.120;13.132;2023-04-03T14:41:47;6.25;;;1.52;;
31306;SDS011;17935;51.120;13.132;2023-04-03T14:44:13;5.80;;;1.60;;
31306;SDS011;17935;51.120;13.132;2023-04-03T14:46:41;6.32;;;1.60;;
31306;SDS011;17935;51.120;13.132;2023-04-03T14:49:41;5.45;;;1.80;;
31306;SDS011;17935;51.120;13.132;2023-04-03T14:51:59;3.78;;;2.03;;
31306;SDS011;17935;51.120;13.132;2023-04-03T14:54:25;8.52;;;2.03;;
31306;SDS011;17935;51.120;13.132;2023-04-03T14:56:53;10.70;;;1.65;;
31306;SDS011;17935;51.120;13.132;2023-04-03T14:59:19;3.08;;;1.73;;
31306;SDS011;17935;51.120;13.132;2023-04-03T15:01:46;2.58;;;1.42;;
31306;SDS011;17935;51.120;13.132;2023-04-03T15:04:13;5.22;;;1.55;;
31306;SDS011;17935;51.120;13.132;2023-04-03T15:06:39;3.45;;;1.48;;
31306;SDS011;17935;51.120;13.132;2023-04-03T15:09:08;4.97;;;1.65;;
31306;SDS011;17935;51.120;13.132;2023-04-03T15:11:35;2.90;;;1.50;;
31306;SDS011;17935;51.120;13.132;2023-04-03T15:14:01;3.45;;;1.70;;
31306;SDS011;17935;51.120;13.132;2023-04-03T15:16:27;3.20;;;1.20;;
31306;SDS011;17935;51.120;13.132;2023-04-03T15:18:53;3.95;;;1.38;;
31306;SDS011;17935;51.120;13.132;2023-04-03T15:21:19;3.72;;;1.60;;
31306;SDS011;17935;51.120;13.132;2023-04-03T15:23:45;5.70;;;1.60;;
31306;SDS011;17935;51.120;13.132;2023-04-03T15:26:11;4.97;;;1.42;;
31306;SDS011;17935;51.120;13.132;2023-04-03T15:28:41;3.33;;;1.50;;
31306;SDS011;17935;51.120;13.132;2023-04-03T15:31:07;2.92;;;1.58;;
31306;SDS011;17935;51.120;13.132;2023-04-03T15:33:34;7.22;;;1.65;;
31306;SDS011;17935;51.120;13.132;2023-04-03T15:36:00;3.78;;;1.50;;
31306;SDS011;17935;51.120;13.132;2023-04-03T15:38:26;9.93;;;1.88;;
31306;SDS011;17935;51.120;13.132;2023-04-03T15:40:53;4.03;;;1.95;;
31306;SDS011;17935;51.120;13.132;2023-04-03T15:43:19;6.18;;;1.63;;
31306;SDS011;17935;51.120;13.132;2023-04-03T15:45:45;4.70;;;1.63;;
31306;SDS011;17935;51.120;13.132;2023-04-03T15:48:11;2.83;;;1.70;;
31306;SDS011;17935;51.120;13.132;2023-04-03T15:50:37;8.45;;;1.45;;
31306;SDS011;17935;51.120;13.132;2023-04-03T15:53:04;2.97;;;1.92;;
31306;SDS011;17935;51.120;13.132;2023-04-03T15:55:31;4.07;;;2.03;;
31306;SDS011;17935;51.120;13.132;2023-04-03T15:57:58;2.28;;;1.30;;
31306;SDS011;17935;51.120;13.132;2023-04-03T16:00:24;1.77;;;1.45;;
31306;SDS011;17935;51.120;13.132;2023-04-03T16:02:52;2.50;;;1.48;;
31306;SDS011;17935;51.120;13.132;2023-04-03T16:05:18;2.00;;;1.58;;
31306;SDS011;17935;51.120;13.132;2023-04-03T16:07:45;3.30;;;1.45;;
31306;SDS011;17935;51.120;13.132;2023-04-03T16:10:11;8.50;;;1.52;;
31306;SDS011;17935;51.120;13.132;2023-04-03T16:12:38;7.47;;;1.80;;
31306;SDS011;17935;51.120;13.132;2023-04-03T16:15:04;2.67;;;1.50;;
31306;SDS011;17935;51.120;13.132;2023-04-03T16:17:31;6.90;;;2.10;;
31306;SDS011;17935;51.120;13.132;2023-04-03T16:19:57;3.83;;;1.42;;
31306;SDS011;17935;51.120;13.132;2023-04-03T16:22:23;4.25;;;1.58;;
31306;SDS011;17935;51.120;13.132;2023-04-03T16:24:50;4.90;;;1.17;;
31306;SDS011;17935;51.120;13.132;2023-04-03T16:27:16;1.27;;;1.15;;
31306;SDS011;17935;51.120;13.132;2023-04-03T16:29:42;3.70;;;1.38;;
31306;SDS011;17935;51.120;13.132;2023-04-03T16:32:08;3.35;;;1.50;;
31306;SDS011;17935;51.120;13.132;2023-04-03T16:34:34;3.35;;;1.48;;
31306;SDS011;17935;51.120;13.132;2023-04-03T16:37:00;3.78;;;1.75;;
31306;SDS011;17935;51.120;13.132;2023-04-03T16:39:26;4.30;;;1.65;;
31306;SDS011;17935;51.120;13.132;2023-04-03T16:41:52;2.78;;;1.70;;
31306;SDS011;17935;51.120;13.132;2023-04-03T16:44:18;5.60;;;1.45;;
31306;SDS011;17935;51.120;13.132;2023-04-03T16:46:44;6.88;;;1.83;;
31306;SDS011;17935;51.120;13.132;2023-04-03T16:49:10;1.75;;;1.38;;
31306;SDS011;17935;51.120;13.132;2023-04-03T16:51:36;13.73;;;2.00;;
31306;SDS011;17935;51.120;13.132;2023-04-03T16:54:01;4.03;;;1.45;;
31306;SDS011;17935;51.120;13.132;2023-04-03T16:56:27;3.72;;;1.77;;
31306;SDS011;17935;51.120;13.132;2023-04-03T16:58:53;2.47;;;1.50;;
31306;SDS011;17935;51.120;13.132;2023-04-03T17:01:20;2.78;;;1.80;;
31306;SDS011;17935;51.120;13.132;2023-04-03T17:03:46;7.07;;;1.65;;
31306;SDS011;17935;51.120;13.132;2023-04-03T17:06:16;6.05;;;2.67;;
31306;SDS011;17935;51.120;13.132;2023-04-03T17:08:43;1.70;;;1.20;;
31306;SDS011;17935;51.120;13.132;2023-04-03T17:11:10;5.00;;;2.05;;
31306;SDS011;17935;51.120;13.132;2023-04-03T17:13:36;3.00;;;1.70;;
31306;SDS011;17935;51.120;13.132;2023-04-03T17:16:02;4.07;;;1.58;;
31306;SDS011;17935;51.120;13.132;2023-04-03T17:18:30;3.53;;;1.77;;
31306;SDS011;17935;51.120;13.132;2023-04-03T17:20:56;4.53;;;1.85;;
31306;SDS011;17935;51.120;13.132;2023-04-03T17:23:25;4.07;;;1.42;;
31306;SDS011;17935;51.120;13.132;2023-04-03T17:25:51;7.43;;;1.67;;
31306;SDS011;17935;51.120;13.132;2023-04-03T17:28:19;4.07;;;1.90;;
31306;SDS011;17935;51.120;13.132;2023-04-03T17:30:46;5.45;;;1.98;;
31306;SDS011;17935;51.120;13.132;2023-04-03T17:33:12;4.80;;;1.50;;
31306;SDS011;17935;51.120;13.132;2023-04-03T17:35:38;3.53;;;1.73;;
31306;SDS011;17935;51.120;13.132;2023-04-03T17:38:04;4.70;;;2.88;;
31306;SDS011;17935;51.120;13.132;2023-04-03T17:40:30;3.00;;;1.42;;
31306;SDS011;17935;51.120;13.132;2023-04-03T17:42:56;4.22;;;1.80;;
31306;SDS011;17935;51.120;13.132;2023-04-03T17:45:22;3.88;;;1.58;;
31306;SDS011;17935;51.120;13.132;2023-04-03T17:47:48;2.17;;;1.40;;
31306;SDS011;17935;51.120;13.132;2023-04-03T17:50:15;4.47;;;2.08;;
31306;SDS011;17935;51.120;13.132;2023-04-03T17:52:41;3.88;;;2.50;;
31306;SDS011;17935;51.120;13.132;2023-04-03T17:55:07;3.60;;;1.73;;
31306;SDS011;17935;51.120;13.132;2023-04-03T17:57:35;5.00;;;1.90;;
31306;SDS011;17935;51.120;13.132;2023-04-03T18:00:01;6.47;;;2.55;;
31306;SDS011;17935;51.120;13.132;2023-04-03T18:02:27;3.40;;;2.00;;
31306;SDS011;17935;51.120;13.132;2023-04-03T18:04:53;2.72;;;1.83;;
31306;SDS011;17935;51.120;13.132;2023-04-03T18:07:19;4.25;;;2.10;;
31306;SDS011;17935;51.120;13.132;2023-04-03T18:09:46;12.90;;;2.20;;
31306;SDS011;17935;51.120;13.132;2023-04-03T18:12:14;1.80;;;1.70;;
31306;SDS011;17935;51.120;13.132;2023-04-03T18:14:40;5.47;;;1.92;;
31306;SDS011;17935;51.120;13.132;2023-04-03T18:17:06;4.18;;;1.90;;
31306;SDS011;17935;51.120;13.132;2023-04-03T18:19:32;4.40;;;2.25;;
31306;SDS011;17935;51.120;13.132;2023-04-03T18:21:59;5.72;;;2.58;;
31306;SDS011;17935;51.120;13.132;2023-04-03T18:24:26;4.10;;;2.40;;
31306;SDS011;17935;51.120;13.132;2023-04-03T18:26:54;9.65;;;2.20;;
31306;SDS011;17935;51.120;13.132;2023-04-03T18:29:22;5.22;;;2.63;;
31306;SDS011;17935;51.120;13.132;2023-04-03T18:31:49;3.30;;;2.20;;
31306;SDS011;17935;51.120;13.132;2023-04-03T18:34:16;6.80;;;2.58;;
31306;SDS011;17935;51.120;13.132;2023-04-03T18:36:42;3.42;;;2.45;;
31306;SDS011;17935;51.120;13.132;2023-04-03T18:39:08;6.00;;;2.50;;
31306;SDS011;17935;51.120;13.132;2023-04-03T18:41:34;6.75;;;2.35;;
31306;SDS011;17935;51.120;13.132;2023-04-03T18:44:01;3.85;;;2.40;;
31306;SDS011;17935;51.120;13.132;2023-04-03T18:46:27;8.40;;;2.53;;
31306;SDS011;17935;51.120;13.132;2023-04-03T18:48:53;6.20;;;3.00;;
31306;SDS011;17935;51.120;13.132;2023-04-03T18:51:20;5.15;;;2.85;;
31306;SDS011;17935;51.120;13.132;2023-04-03T18:53:46;4.88;;;3.15;;
31306;SDS011;17935;51.120;13.132;2023-04-03T18:56:12;6.22;;;3.40;;
31306;SDS011;17935;51.120;13.132;2023-04-03T18:58:38;7.43;;;3.30;;
31306;SDS011;17935;51.120;13.132;2023-04-03T19:01:04;4.95;;;2.80;;
31306;SDS011;17935;51.120;13.132;2023-04-03T19:03:31;7.95;;;2.60;;
31306;SDS011;17935;51.120;13.132;2023-04-03T19:05:58;4.60;;;2.60;;
31306;SDS011;17935;51.120;13.132;2023-04-03T19:08:24;4.70;;;2.67;;
31306;SDS011;17935;51.120;13.132;2023-04-03T19:10:50;7.15;;;2.63;;
31306;SDS011;17935;51.120;13.132;2023-04-03T19:13:16;4.93;;;2.38;;
31306;SDS011;17935;51.120;13.132;2023-04-03T19:15:42;7.20;;;3.00;;
31306;SDS011;17935;51.120;13.132;2023-04-03T19:18:08;7.65;;;3.80;;
31306;SDS011;17935;51.120;13.132;2023-04-03T19:20:34;10.95;;;6.53;;
31306;SDS011;17935;51.120;13.132;2023-04-03T19:23:00;7.07;;;3.40;;
31306;SDS011;17935;51.120;13.132;2023-04-03T19:25:26;8.32;;;2.63;;
31306;SDS011;17935;51.120;13.132;2023-04-03T19:27:52;6.25;;;2.35;;
31306;SDS011;17935;51.120;13.132;2023-04-03T19:30:18;4.95;;;2.78;;
31306;SDS011;17935;51.120;13.132;2023-04-03T19:32:45;6.38;;;2.85;;
31306;SDS011;17935;51.120;13.132;2023-04-03T19:35:11;5.63;;;3.03;;
31306;SDS011;17935;51.120;13.132;2023-04-03T19:37:37;7.53;;;2.45;;
31306;SDS011;17935;51.120;13.132;2023-04-03T19:40:03;7.03;;;3.22;;
31306;SDS011;17935;51.120;13.132;2023-04-03T19:42:29;8.27;;;3.15;;
31306;SDS011;17935;51.120;13.132;2023-04-03T19:44:55;4.75;;;3.05;;
31306;SDS011;17935;51.120;13.132;2023-04-03T19:47:22;5.57;;;3.28;;
31306;SDS011;17935;51.120;13.132;2023-04-03T19:49:49;7.35;;;4.20;;
31306;SDS011;17935;51.120;13.132;2023-04-03T19:52:15;7.20;;;3.65;;
31306;SDS011;17935;51.120;13.132;2023-04-03T19:54:41;8.77;;;2.80;;
31306;SDS011;17935;51.120;13.132;2023-04-03T19:57:07;5.55;;;2.90;;
31306;SDS011;17935;51.120;13.132;2023-04-03T19:59:33;4.20;;;2.97;;
31306;SDS011;17935;51.120;13.132;2023-04-03T20:01:59;6.07;;;3.35;;
31306;SDS011;17935;51.120;13.132;2023-04-03T20:04:25;9.05;;;3.78;;
31306;SDS011;17935;51.120;13.132;2023-04-03T20:06:51;6.25;;;3.60;;
31306;SDS011;17935;51.120;13.132;2023-04-03T20:09:17;5.32;;;3.30;;
31306;SDS011;17935;51.120;13.132;2023-04-03T20:11:45;8.63;;;4.03;;
31306;SDS011;17935;51.120;13.132;2023-04-03T20:14:12;7.82;;;4.25;;
31306;SDS011;17935;51.120;13.132;2023-04-03T20:16:38;8.45;;;4.20;;
31306;SDS011;17935;51.120;13.132;2023-04-03T20:19:04;8.60;;;4.07;;
31306;SDS011;17935;51.120;13.132;2023-04-03T20:21:31;8.00;;;4.60;;
31306;SDS011;17935;51.120;13.132;2023-04-03T20:24:01;10.23;;;4.18;;
31306;SDS011;17935;51.120;13.132;2023-04-03T20:26:28;10.68;;;4.97;;
31306;SDS011;17935;51.120;13.132;2023-04-03T20:28:56;6.80;;;4.00;;
31306;SDS011;17935;51.120;13.132;2023-04-03T20:31:23;10.30;;;3.83;;
31306;SDS011;17935;51.120;13.132;2023-04-03T20:33:49;21.63;;;4.82;;
31306;SDS011;17935;51.120;13.132;2023-04-03T20:36:16;9.23;;;5.03;;
31306;SDS011;17935;51.120;13.132;2023-04-03T20:38:42;6.80;;;3.80;;
31306;SDS011;17935;51.120;13.132;2023-04-03T20:41:08;7.47;;;4.13;;
31306;SDS011;17935;51.120;13.132;2023-04-03T20:43:34;5.45;;;3.17;;
31306;SDS011;17935;51.120;13.132;2023-04-03T20:46:02;6.65;;;3.00;;
31306;SDS011;17935;51.120;13.132;2023-04-03T20:48:28;6.30;;;2.78;;
31306;SDS011;17935;51.120;13.132;2023-04-03T20:50:55;11.23;;;3.40;;
31306;SDS011;17935;51.120;13.132;2023-04-03T20:53:22;6.10;;;3.10;;
31306;SDS011;17935;51.120;13.132;2023-04-03T20:55:54;4.45;;;2.85;;
31306;SDS011;17935;51.120;13.132;2023-04-03T20:58:24;16.30;;;4.15;;
31306;SDS011;17935;51.120;13.132;2023-04-03T21:00:51;6.72;;;3.42;;
31306;SDS011;17935;51.120;13.132;2023-04-03T21:03:20;8.43;;;4.13;;
31306;SDS011;17935;51.120;13.132;2023-04-03T21:05:46;11.45;;;3.90;;
31306;SDS011;17935;51.120;13.132;2023-04-03T21:21:26;5.68;;;3.40;;
31306;SDS011;17935;51.120;13.132;2023-04-03T21:23:53;6.68;;;3.75;;
31306;SDS011;17935;51.120;13.132;2023-04-03T21:26:19;5.72;;;3.00;;
31306;SDS011;17935;51.120;13.132;2023-04-03T21:28:46;4.05;;;3.10;;
31306;SDS011;17935;51.120;13.132;2023-04-03T21:31:12;8.98;;;3.75;;
31306;SDS011;17935;51.120;13.132;2023-04-03T21:33:39;7.65;;;3.25;;
31306;SDS011;17935;51.120;13.132;2023-04-03T21:36:05;4.55;;;3.05;;
31306;SDS011;17935;51.120;13.132;2023-04-03T21:38:31;7.93;;;3.22;;
31306;SDS011;17935;51.120;13.132;2023-04-03T21:41:00;5.40;;;3.20;;
31306;SDS011;17935;51.120;13.132;2023-04-03T21:43:26;8.43;;;3.05;;
31306;SDS011;17935;51.120;13.132;2023-04-03T21:45:56;7.35;;;3.08;;
31306;SDS011;17935;51.120;13.132;2023-04-03T21:48:22;6.30;;;3.13;;
31306;SDS011;17935;51.120;13.132;2023-04-03T21:50:49;6.38;;;4.18;;
31306;SDS011;17935;51.120;13.132;2023-04-03T21:53:21;6.32;;;3.33;;
31306;SDS011;17935;51.120;13.132;2023-04-03T21:55:53;6.53;;;3.38;;
31306;SDS011;17935;51.120;13.132;2023-04-03T21:58:19;6.53;;;3.63;;
31306;SDS011;17935;51.120;13.132;2023-04-03T22:00:45;7.60;;;4.20;;
31306;SDS011;17935;51.120;13.132;2023-04-03T22:03:11;8.23;;;3.03;;
31306;SDS011;17935;51.120;13.132;2023-04-03T22:05:37;5.28;;;3.17;;
31306;SDS011;17935;51.120;13.132;2023-04-03T22:08:03;4.32;;;3.08;;
31306;SDS011;17935;51.120;13.132;2023-04-03T22:10:31;6.60;;;3.47;;
31306;SDS011;17935;51.120;13.132;2023-04-03T22:12:57;9.23;;;3.50;;
31306;SDS011;17935;51.120;13.132;2023-04-03T22:15:22;7.10;;;3.53;;
31306;SDS011;17935;51.120;13.132;2023-04-03T22:17:48;9.45;;;3.30;;
31306;SDS011;17935;51.120;13.132;2023-04-03T22:20:14;8.40;;;3.53;;
31306;SDS011;17935;51.120;13.132;2023-04-03T22:22:40;7.72;;;3.38;;
31306;SDS011;17935;51.120;13.132;2023-04-03T22:25:06;5.00;;;3.60;;
31306;SDS011;17935;51.120;13.132;2023-04-03T22:27:33;6.28;;;3.78;;
31306;SDS011;17935;51.120;13.132;2023-04-03T22:29:59;6.65;;;2.97;;
31306;SDS011;17935;51.120;13.132;2023-04-03T22:32:25;9.27;;;3.17;;
31306;SDS011;17935;51.120;13.132;2023-04-03T22:34:51;9.57;;;3.53;;
31306;SDS011;17935;51.120;13.132;2023-04-03T22:37:17;5.78;;;3.53;;
31306;SDS011;17935;51.120;13.132;2023-04-03T22:39:42;10.73;;;3.60;;
31306;SDS011;17935;51.120;13.132;2023-04-03T22:42:08;4.85;;;3.42;;
31306;SDS011;17935;51.120;13.132;2023-04-03T22:44:34;8.35;;;3.67;;
31306;SDS011;17935;51.120;13.132;2023-04-03T22:47:00;7.22;;;3.50;;
31306;SDS011;17935;51.120;13.132;2023-04-03T22:49:26;5.45;;;3.45;;
31306;SDS011;17935;51.120;13.132;2023-04-03T22:51:52;6.18;;;4.20;;
31306;SDS011;17935;51.120;13.132;2023-04-03T22:54:18;8.68;;;3.80;;
31306;SDS011;17935;51.120;13.132;2023-04-03T22:56:44;11.00;;;4.68;;
31306;SDS011;17935;51.120;13.132;2023-04-03T22:59:10;8.95;;;5.25;;
31306;SDS011;17935;51.120;13.132;2023-04-03T23:01:37;8.95;;;4.13;;
31306;SDS011;17935;51.120;13.132;2023-04-03T23:04:03;9.30;;;4.13;;
31306;SDS011;17935;51.120;13.132;2023-04-03T23:06:29;5.97;;;3.75;;
31306;SDS011;17935;51.120;13.132;2023-04-03T23:08:55;9.10;;;3.72;;
31306;SDS011;17935;51.120;13.132;2023-04-03T23:11:21;12.82;;;3.88;;
31306;SDS011;17935;51.120;13.132;2023-04-03T23:13:47;4.97;;;3.05;;
31306;SDS011;17935;51.120;13.132;2023-04-03T23:16:14;11.43;;;3.92;;
31306;SDS011;17935;51.120;13.132;2023-04-03T23:18:39;6.32;;;4.75;;
31306;SDS011;17935;51.120;13.132;2023-04-03T23:21:07;7.18;;;4.78;;
31306;SDS011;17935;51.120;13.132;2023-04-03T23:23:33;7.75;;;4.55;;
31306;SDS011;17935;51.120;13.132;2023-04-03T23:26:00;7.60;;;4.88;;
31306;SDS011;17935;51.120;13.132;2023-04-03T23:28:26;8.35;;;3.72;;
31306;SDS011;17935;51.120;13.132;2023-04-03T23:30:59;8.20;;;3.75;;
31306;SDS011;17935;51.120;13.132;2023-04-03T23:33:25;5.00;;;3.23;;